Time;durP1;ratioP1;P1;durP2;ratioP2;P2;SDS_P1;SDS_P2;PMS_P1;PMS_P2;Temp;Humidity;BMP_temperature;BMP_pressure;BME280_temperature;BME280_humidity;BME280_pressure;Samples;Min_cycle;Max_cycle;Signal;HPM_P1;HPM_P2
2022/03/15 00:01:53;;;;;;;29.70;13.70;;;5.70;99.90;;;;;;6012406;23;20027;-87
2022/03/15 00:04:40;;;;;;;17.17;6.30;;;5.70;99.90;;;;;;6038530;23;20079;-85
2022/03/15 00:07:30;;;;;;;16.77;6.72;;;5.60;99.90;;;;;;6013560;23;20047;-87
2022/03/15 00:10:18;;;;;;;17.17;7.05;;;5.50;99.90;;;;;;6032940;23;20035;-86
2022/03/15 00:13:07;;;;;;;21.00;6.78;;;5.30;99.90;;;;;;6035479;23;20028;-87
2022/03/15 00:15:56;;;;;;;12.95;5.75;;;5.20;99.90;;;;;;6033408;23;20095;-86
2022/03/15 00:18:43;;;;;;;11.25;5.93;;;5.20;99.90;;;;;;6036102;23;20034;-88
2022/03/15 00:21:32;;;;;;;11.77;6.03;;;5.10;99.90;;;;;;6036064;23;20094;-86
2022/03/15 00:24:21;;;;;;;9.52;5.75;;;5.00;99.90;;;;;;6016500;23;20068;-87
2022/03/15 00:27:10;;;;;;;10.95;6.07;;;5.00;99.90;;;;;;6014914;23;20318;-85
2022/03/15 00:30:00;;;;;;;14.18;7.13;;;5.00;99.90;;;;;;6036070;23;20087;-85
2022/03/15 00:32:48;;;;;;;10.43;6.60;;;5.00;99.90;;;;;;6034942;23;20027;-84
2022/03/15 00:35:38;;;;;;;15.77;6.78;;;4.90;99.90;;;;;;6034428;23;20399;-85
2022/03/15 00:38:26;;;;;;;14.60;6.95;;;4.90;99.90;;;;;;6033933;23;20042;-85
2022/03/15 00:41:16;;;;;;;14.68;6.00;;;5.00;99.90;;;;;;6033299;23;20051;-87
2022/03/15 00:44:04;;;;;;;11.15;5.53;;;4.90;99.90;;;;;;6035778;23;20439;-86
2022/03/15 00:46:52;;;;;;;13.88;5.65;;;4.90;99.90;;;;;;6038450;23;20023;-86
2022/03/15 00:49:39;;;;;;;15.10;5.60;;;4.90;99.90;;;;;;6035309;23;20133;-84
2022/03/15 00:52:27;;;;;;;14.07;4.75;;;5.00;99.90;;;;;;6016440;23;20429;-85
2022/03/15 00:55:14;;;;;;;17.77;5.30;;;4.90;99.90;;;;;;6033514;23;20439;-87
2022/03/15 00:58:01;;;;;;;14.80;5.85;;;4.90;99.90;;;;;;6031187;23;20034;-87
2022/03/15 01:00:48;;;;;;;11.63;5.18;;;4.90;99.90;;;;;;6033983;23;20117;-87
2022/03/15 01:03:36;;;;;;;15.02;5.30;;;4.80;99.90;;;;;;6036406;23;20261;-84
2022/03/15 01:06:23;;;;;;;14.35;5.38;;;4.80;99.90;;;;;;6014109;23;20073;-85
2022/03/15 01:09:10;;;;;;;14.13;4.80;;;4.70;99.90;;;;;;6033121;23;20024;-85
2022/03/15 01:11:59;;;;;;;13.90;5.50;;;4.70;99.90;;;;;;6041279;23;20038;-86
2022/03/15 01:14:46;;;;;;;15.88;6.30;;;4.70;99.90;;;;;;6048595;23;20031;-85
2022/03/15 01:17:35;;;;;;;12.27;4.93;;;4.70;99.90;;;;;;6044523;23;20130;-85
2022/03/15 01:20:24;;;;;;;11.20;5.13;;;4.70;99.90;;;;;;6036142;23;20046;-85
2022/03/15 01:23:12;;;;;;;8.32;4.57;;;4.70;99.90;;;;;;6015994;23;20061;-86
2022/03/15 01:25:59;;;;;;;8.38;4.82;;;4.70;99.90;;;;;;6035010;23;20039;-86
2022/03/15 01:28:49;;;;;;;14.70;6.97;;;4.80;99.90;;;;;;6034140;23;20375;-86
2022/03/15 01:31:38;;;;;;;15.57;6.55;;;4.70;99.90;;;;;;6038404;23;20031;-85
2022/03/15 01:34:27;;;;;;;19.25;6.47;;;4.60;99.90;;;;;;6011658;23;20102;-84
2022/03/15 01:37:15;;;;;;;14.07;5.78;;;4.50;99.90;;;;;;6032779;23;20038;-86
2022/03/15 01:40:03;;;;;;;11.32;5.80;;;4.50;99.90;;;;;;6033219;23;20094;-84
2022/03/15 01:42:50;;;;;;;12.57;5.93;;;4.40;99.90;;;;;;6033616;23;20031;-85
2022/03/15 01:45:40;;;;;;;12.60;5.30;;;4.40;99.90;;;;;;6033372;23;20411;-85
2022/03/15 01:48:28;;;;;;;12.55;5.10;;;4.50;99.90;;;;;;6034928;23;20095;-85
2022/03/15 01:51:18;;;;;;;18.08;6.80;;;4.60;99.90;;;;;;6034196;23;20038;-85
2022/03/15 01:54:08;;;;;;;12.65;6.13;;;4.60;99.90;;;;;;6033959;23;20050;-86
2022/03/15 01:56:55;;;;;;;14.38;6.88;;;4.60;99.90;;;;;;6033189;23;20027;-86
2022/03/15 01:59:42;;;;;;;15.77;6.93;;;4.40;99.90;;;;;;6034056;23;20035;-86
2022/03/15 02:02:35;;;;;;;14.40;5.78;;;4.40;99.90;;;;;;6031817;23;20039;-88
2022/03/15 02:05:22;;;;;;;13.00;5.53;;;4.40;99.90;;;;;;6031740;23;20487;-85
2022/03/15 02:08:14;;;;;;;14.18;6.00;;;4.40;99.90;;;;;;6032906;23;20094;-85
2022/03/15 02:11:08;;;;;;;16.40;5.22;;;4.30;99.90;;;;;;6033408;23;20062;-85
2022/03/15 02:13:56;;;;;;;10.63;5.40;;;4.30;99.90;;;;;;6033525;23;20054;-86
2022/03/15 02:16:45;;;;;;;13.43;5.13;;;4.40;99.90;;;;;;6036981;23;20043;-86
2022/03/15 02:19:36;;;;;;;11.68;5.80;;;4.40;99.90;;;;;;6031854;23;20046;-85
2022/03/15 02:22:23;;;;;;;13.73;6.00;;;4.40;99.90;;;;;;6013359;23;20442;-84
2022/03/15 02:25:10;;;;;;;18.83;5.80;;;4.40;99.90;;;;;;6015104;23;20093;-86
2022/03/15 02:27:58;;;;;;;12.48;5.60;;;4.30;99.90;;;;;;6034076;23;20027;-85
2022/03/15 02:30:45;;;;;;;10.88;5.68;;;4.30;99.90;;;;;;6035024;23;20350;-84
2022/03/15 02:33:32;;;;;;;14.23;5.40;;;4.30;99.90;;;;;;6032413;23;20097;-83
2022/03/15 02:36:20;;;;;;;15.80;5.82;;;4.20;99.90;;;;;;6013358;23;20466;-85
2022/03/15 02:39:07;;;;;;;13.95;6.20;;;4.30;99.90;;;;;;6018990;23;20035;-84
2022/03/15 02:41:54;;;;;;;12.27;6.22;;;4.30;99.90;;;;;;6038999;23;20102;-85
2022/03/15 02:44:41;;;;;;;12.18;6.25;;;4.30;99.90;;;;;;6033063;23;20055;-84
2022/03/15 02:47:30;;;;;;;11.55;5.13;;;4.30;99.90;;;;;;6013624;23;20023;-86
2022/03/15 02:50:19;;;;;;;14.77;5.05;;;4.30;99.90;;;;;;6013500;23;20061;-85
2022/03/15 02:53:07;;;;;;;20.00;5.63;;;4.30;99.90;;;;;;6032302;23;20038;-85
2022/03/15 02:55:54;;;;;;;12.70;5.15;;;4.30;99.90;;;;;;6031748;23;20035;-86
2022/03/15 02:58:41;;;;;;;13.32;4.68;;;4.30;99.90;;;;;;6034177;23;20027;-84
2022/03/15 03:01:29;;;;;;;9.25;4.53;;;4.30;99.90;;;;;;6031985;23;20024;-87
2022/03/15 03:04:16;;;;;;;14.68;4.95;;;4.30;99.90;;;;;;6034800;23;20023;-85
2022/03/15 03:07:04;;;;;;;17.02;5.13;;;4.30;99.90;;;;;;6034286;23;20027;-85
2022/03/15 03:09:51;;;;;;;11.82;4.30;;;4.40;99.90;;;;;;6041507;23;20466;-86
2022/03/15 03:12:41;;;;;;;10.15;4.22;;;4.50;99.90;;;;;;6021181;23;20034;-85
2022/03/15 03:15:32;;;;;;;13.00;4.45;;;4.50;99.90;;;;;;6045734;23;20042;-85
2022/03/15 03:18:19;;;;;;;8.48;4.38;;;4.50;99.90;;;;;;6018276;23;20050;-86
2022/03/15 03:21:07;;;;;;;8.27;4.18;;;4.50;99.90;;;;;;6033779;23;20093;-85
2022/03/15 03:23:56;;;;;;;8.63;3.90;;;4.50;99.90;;;;;;6034714;23;20028;-86
2022/03/15 03:26:43;;;;;;;15.10;5.97;;;4.50;99.90;;;;;;6033483;23;20062;-84
2022/03/15 03:29:30;;;;;;;13.65;4.90;;;4.50;99.90;;;;;;6033139;23;20044;-85
2022/03/15 03:32:18;;;;;;;14.57;5.80;;;4.50;99.90;;;;;;6017233;23;20035;-86
2022/03/15 03:35:05;;;;;;;19.50;5.75;;;4.50;99.90;;;;;;6040645;23;20108;-86
2022/03/15 03:37:56;;;;;;;14.23;6.18;;;4.50;99.90;;;;;;6035847;23;20042;-86
2022/03/15 03:40:46;;;;;;;12.07;5.28;;;4.40;99.90;;;;;;6034659;23;20121;-87
2022/03/15 03:43:34;;;;;;;13.02;5.13;;;4.40;99.90;;;;;;6032802;23;20023;-84
2022/03/15 03:46:21;;;;;;;9.60;4.43;;;4.40;99.90;;;;;;6041530;23;20035;-84
2022/03/15 03:49:08;;;;;;;14.80;5.00;;;4.40;99.90;;;;;;6049214;23;20028;-85
2022/03/15 03:51:56;;;;;;;12.07;5.13;;;4.40;99.90;;;;;;6038867;23;20113;-85
2022/03/15 03:54:44;;;;;;;13.75;6.03;;;4.40;99.90;;;;;;6036287;23;20323;-86
2022/03/15 03:57:31;;;;;;;14.35;5.80;;;4.30;99.90;;;;;;6035499;23;20042;-85
2022/03/15 04:00:18;;;;;;;12.80;5.40;;;4.20;99.90;;;;;;6033781;23;20035;-85
2022/03/15 04:03:10;;;;;;;12.68;5.80;;;4.10;99.90;;;;;;6033824;23;20027;-86
2022/03/15 04:05:58;;;;;;;17.58;6.15;;;4.00;99.90;;;;;;6013428;23;20038;-86
2022/03/15 04:08:46;;;;;;;13.93;5.15;;;3.90;99.90;;;;;;6034593;23;20043;-86
2022/03/15 04:11:34;;;;;;;10.15;5.15;;;4.00;99.90;;;;;;6038271;23;20438;-84
2022/03/15 04:14:22;;;;;;;15.95;5.43;;;4.00;99.90;;;;;;6033617;23;20042;-85
2022/03/15 04:17:09;;;;;;;13.68;5.38;;;4.00;99.90;;;;;;6034024;23;20032;-85
2022/03/15 04:19:57;;;;;;;11.40;4.85;;;4.00;99.90;;;;;;6034293;23;20050;-86
2022/03/15 04:22:44;;;;;;;12.77;4.90;;;3.90;99.90;;;;;;6032416;23;20125;-85
2022/03/15 04:25:32;;;;;;;9.48;4.97;;;3.90;99.90;;;;;;6019414;23;20024;-86
2022/03/15 04:28:19;;;;;;;11.38;5.30;;;4.00;99.90;;;;;;6035835;23;20032;-85
2022/03/15 04:31:06;;;;;;;11.48;5.32;;;4.10;99.90;;;;;;6035429;23;20063;-83
2022/03/15 04:33:53;;;;;;;11.98;4.75;;;4.10;99.90;;;;;;6037341;23;20292;-85
2022/03/15 04:36:43;;;;;;;14.63;4.95;;;4.10;99.90;;;;;;6032231;23;20036;-85
2022/03/15 04:39:30;;;;;;;13.57;5.15;;;4.20;99.90;;;;;;6035332;23;20459;-85
2022/03/15 04:42:18;;;;;;;12.50;5.57;;;4.20;99.90;;;;;;6033638;23;20035;-84
2022/03/15 04:45:06;;;;;;;13.95;5.68;;;4.20;99.90;;;;;;6013743;23;20042;-85
2022/03/15 04:47:53;;;;;;;9.98;4.97;;;4.20;99.90;;;;;;6033555;23;20038;-85
2022/03/15 04:50:41;;;;;;;13.30;5.88;;;4.30;99.90;;;;;;6034918;23;20454;-86
2022/03/15 04:53:29;;;;;;;12.98;5.68;;;4.30;99.90;;;;;;6034213;23;20098;-87
2022/03/15 04:56:16;;;;;;;6.32;4.57;;;4.40;99.90;;;;;;6033446;23;20320;-87
2022/03/15 04:59:03;;;;;;;11.13;4.97;;;4.40;99.90;;;;;;6035732;23;20039;-88
2022/03/15 05:01:50;;;;;;;14.05;5.47;;;4.40;99.90;;;;;;6032600;23;20511;-86
2022/03/15 05:04:38;;;;;;;15.45;5.60;;;4.40;99.90;;;;;;6033400;23;20027;-87
2022/03/15 05:07:27;;;;;;;11.10;5.85;;;4.30;99.90;;;;;;6014261;23;20039;-86
2022/03/15 05:13:30;;;;;;;11.10;6.28;;;4.30;99.90;;;;;;6036435;23;20027;-86
2022/03/15 05:16:21;;;;;;;15.15;5.88;;;4.30;99.90;;;;;;6033876;23;20027;-84
2022/03/15 05:19:09;;;;;;;17.20;6.45;;;4.20;99.90;;;;;;6034966;23;20058;-86
2022/03/15 05:22:43;;;;;;;;;;;;;;;;;;;;;
2022/03/15 05:26:30;;;;;;;14.32;5.88;;;4.50;99.90;;;;;;6033971;23;20122;-86
2022/03/15 05:29:45;;;;;;;15.73;5.70;;;4.50;99.90;;;;;;6037572;23;20042;-85
2022/03/15 05:37:31;;;;;;;20.38;5.57;;;4.60;99.90;;;;;;5854469;24;20025;-87
2022/03/15 05:41:07;;;;;;;13.18;5.35;;;4.70;99.90;;;;;;5808151;24;20038;-87
2022/03/15 05:44:20;;;;;;;12.10;5.70;;;4.60;99.90;;;;;;5849281;24;20031;-85
2022/03/15 05:47:23;;;;;;;15.77;6.97;;;4.60;99.90;;;;;;5962746;24;20020;-88
2022/03/15 05:50:13;;;;;;;14.25;6.45;;;4.50;99.90;;;;;;5995209;23;20039;-86
2022/03/15 05:53:03;;;;;;;20.30;7.63;;;4.50;99.90;;;;;;6045696;23;20038;-84
2022/03/15 05:55:50;;;;;;;15.13;6.78;;;4.50;99.90;;;;;;6016665;23;20470;-82
2022/03/15 05:58:38;;;;;;;16.20;6.35;;;4.50;99.90;;;;;;6014974;23;20070;-83
2022/03/15 06:01:25;;;;;;;14.82;6.13;;;4.50;99.90;;;;;;6013384;23;20288;-85
2022/03/15 06:04:13;;;;;;;14.65;6.18;;;4.60;99.90;;;;;;6034033;23;20113;-86
2022/03/15 06:07:03;;;;;;;11.50;5.55;;;4.60;99.90;;;;;;6016040;23;20086;-83
2022/03/15 06:09:54;;;;;;;14.82;5.53;;;4.70;99.90;;;;;;6031230;23;20048;-83
2022/03/15 06:12:42;;;;;;;11.18;5.72;;;4.80;99.90;;;;;;6031115;23;20734;-80
2022/03/15 06:15:30;;;;;;;13.70;6.10;;;4.80;99.90;;;;;;6029720;23;20031;-82
2022/03/15 06:18:31;;;;;;;16.05;6.03;;;4.80;99.90;;;;;;6014994;23;20035;-81
2022/03/15 06:21:18;;;;;;;22.50;6.28;;;4.80;99.90;;;;;;6032059;23;20031;-79
2022/03/15 06:24:07;;;;;;;16.05;5.93;;;4.90;99.90;;;;;;6042959;23;20126;-83
2022/03/15 06:31:02;;;;;;;18.75;5.80;;;5.10;99.90;;;;;;6034115;23;20043;-87
2022/03/15 06:34:57;;;;;;;10.02;5.05;;;5.20;99.90;;;;;;6037097;23;20395;-85
2022/03/15 06:42:11;;;;;;;14.85;5.30;;;5.30;99.90;;;;;;5967063;23;20432;-86
2022/03/15 06:44:59;;;;;;;14.75;4.80;;;5.50;99.90;;;;;;5977545;24;20033;-87
2022/03/15 06:48:11;;;;;;;18.20;6.65;;;5.60;99.90;;;;;;6031103;23;20028;-88
2022/03/15 06:51:03;;;;;;;10.00;5.18;;;5.70;99.90;;;;;;5976904;24;20036;-88
2022/03/15 06:53:50;;;;;;;16.67;5.45;;;5.80;99.90;;;;;;5977079;23;20028;-88
2022/03/15 06:56:42;;;;;;;15.65;5.40;;;5.80;99.90;;;;;;5980715;23;20043;-88
2022/03/15 06:59:40;;;;;;;9.90;3.97;;;6.00;99.90;;;;;;5975797;23;20040;-88
2022/03/15 07:02:32;;;;;;;12.10;4.97;;;6.00;99.90;;;;;;5978208;23;20036;-87
2022/03/15 07:05:34;;;;;;;20.45;5.30;;;6.10;99.90;;;;;;6037075;23;20312;-88
2022/03/15 07:08:32;;;;;;;15.55;6.47;;;6.20;99.90;;;;;;6035330;23;20027;-88
2022/03/15 07:11:24;;;;;;;11.23;4.53;;;6.30;99.90;;;;;;6036118;23;20027;-88
2022/03/15 07:14:28;;;;;;;11.45;4.43;;;6.40;99.90;;;;;;6021754;23;20102;-86
2022/03/15 07:17:24;;;;;;;11.00;4.68;;;6.40;99.90;;;;;;6033162;23;20023;-89
2022/03/15 07:20:35;;;;;;;11.70;4.72;;;6.40;99.90;;;;;;6034071;23;20133;-88
2022/03/15 07:23:30;;;;;;;12.05;4.88;;;6.50;99.90;;;;;;6034950;23;20539;-86
2022/03/15 07:26:21;;;;;;;13.32;4.38;;;6.50;99.90;;;;;;6013641;23;20035;-85
2022/03/15 07:29:39;;;;;;;15.10;4.80;;;6.50;99.90;;;;;;6036677;23;20054;-88
2022/03/15 07:32:30;;;;;;;11.60;4.95;;;6.50;99.90;;;;;;6035275;23;20456;-84
2022/03/15 07:35:18;;;;;;;14.00;5.10;;;6.60;99.90;;;;;;6019631;23;20023;-83
2022/03/15 07:38:06;;;;;;;13.85;4.50;;;6.70;99.90;;;;;;6031724;23;20027;-84
2022/03/15 07:40:58;;;;;;;8.70;4.70;;;6.60;99.90;;;;;;6014358;23;20057;-82
2022/03/15 07:43:51;;;;;;;13.15;4.65;;;6.50;99.90;;;;;;6034096;23;20454;-81
2022/03/15 07:46:40;;;;;;;8.65;4.63;;;6.40;99.90;;;;;;6033425;23;20042;-83
2022/03/15 07:49:35;;;;;;;13.25;4.28;;;6.40;99.90;;;;;;6034169;23;20027;-83
2022/03/15 07:52:26;;;;;;;11.57;4.82;;;6.50;99.90;;;;;;6035806;23;20089;-83
2022/03/15 07:55:16;;;;;;;13.05;4.68;;;6.50;99.90;;;;;;6033624;23;20315;-84
2022/03/15 07:58:05;;;;;;;8.70;3.97;;;6.70;99.90;;;;;;6014913;23;20039;-85
2022/03/15 08:00:56;;;;;;;11.65;4.10;;;6.80;99.90;;;;;;6034160;23;20091;-84
2022/03/15 08:03:53;;;;;;;11.65;3.63;;;6.90;99.90;;;;;;6033326;23;20117;-84
2022/03/15 08:06:41;;;;;;;7.47;3.25;;;7.00;99.90;;;;;;6031380;23;20109;-84
2022/03/15 08:09:38;;;;;;;12.13;3.72;;;7.10;99.90;;;;;;6015589;23;20038;-84
2022/03/15 08:12:26;;;;;;;11.05;3.95;;;7.20;99.90;;;;;;6034264;23;20498;-87
2022/03/15 08:18:47;;;;;;;7.78;3.65;;;7.30;99.90;;;;;;6035192;23;20015;-86
2022/03/15 08:21:44;;;;;;;9.35;4.03;;;7.40;99.90;;;;;;6031333;23;20062;-86
2022/03/15 08:24:31;;;;;;;7.47;4.18;;;7.40;99.90;;;;;;6031481;23;20462;-85
2022/03/15 08:27:23;;;;;;;11.80;4.20;;;7.50;99.90;;;;;;6014359;23;20361;-85
2022/03/15 08:30:12;;;;;;;10.38;4.32;;;7.50;99.90;;;;;;6034853;23;20027;-82
2022/03/15 08:33:00;;;;;;;15.23;6.40;;;7.50;99.90;;;;;;6030805;23;20117;-82
2022/03/15 08:35:48;;;;;;;21.02;6.90;;;7.50;99.90;;;;;;6014041;23;20041;-84
2022/03/15 08:38:45;;;;;;;16.55;8.05;;;7.50;99.90;;;;;;6037855;23;20039;-82
2022/03/15 08:41:32;;;;;;;13.52;5.93;;;7.50;99.90;;;;;;6032833;23;20035;-84
2022/03/15 08:44:22;;;;;;;14.57;6.57;;;7.50;99.90;;;;;;6033561;23;20027;-85
2022/03/15 08:47:20;;;;;;;10.10;4.05;;;7.50;99.90;;;;;;6028076;23;20107;-84
2022/03/15 08:50:09;;;;;;;7.65;4.13;;;7.50;99.90;;;;;;6015135;23;20023;-84
2022/03/15 08:52:59;;;;;;;12.07;4.05;;;7.40;99.90;;;;;;6033530;23;20023;-84
2022/03/15 08:56:02;;;;;;;8.93;4.03;;;7.30;99.90;;;;;;6035333;23;20027;-85
2022/03/15 08:58:50;;;;;;;12.05;4.55;;;7.30;99.90;;;;;;6038338;23;20027;-84
2022/03/15 09:02:01;;;;;;;9.45;4.63;;;7.20;99.90;;;;;;6016497;23;20331;-83
2022/03/15 09:04:49;;;;;;;8.32;4.53;;;7.20;99.90;;;;;;6017000;23;20027;-83
2022/03/15 09:07:52;;;;;;;7.57;4.60;;;7.10;99.90;;;;;;6035396;23;20403;-82
2022/03/15 09:10:53;;;;;;;8.13;5.07;;;7.10;99.90;;;;;;6018715;23;20023;-85
2022/03/15 09:14:26;;;;;;;15.38;4.75;;;7.10;99.90;;;;;;5970253;23;20024;-86
2022/03/15 09:17:17;;;;;;;14.38;5.50;;;7.10;99.90;;;;;;5984651;24;20021;-86
2022/03/15 09:20:11;;;;;;;10.73;5.13;;;7.10;99.90;;;;;;6010654;23;20079;-84
2022/03/15 09:23:57;;;;;;;12.52;5.22;;;7.20;99.90;;;;;;5989995;24;20024;-86
2022/03/15 09:31:31;;;;;;;9.45;4.60;;;7.50;99.90;;;;;;6064629;23;20035;-83
2022/03/15 09:43:39;;;;;;;9.77;4.90;;;7.80;99.90;;;;;;6048575;23;20028;-85
2022/03/15 09:47:32;;;;;;;6.05;5.18;;;7.80;99.90;;;;;;5924816;23;20460;-81
2022/03/15 09:50:23;;;;;;;9.60;5.40;;;7.80;99.90;;;;;;5929914;23;20065;-84
2022/03/15 09:53:16;;;;;;;8.65;5.28;;;7.90;99.90;;;;;;5926673;23;20072;-84
2022/03/15 10:17:21;;;;;;;7.13;4.63;;;8.00;99.90;;;;;;6045986;23;20034;-80
2022/03/15 10:20:13;;;;;;;9.68;5.63;;;8.00;99.90;;;;;;6055253;23;20188;-80
2022/03/15 10:23:03;;;;;;;6.13;3.63;;;8.10;99.90;;;;;;6058640;23;20055;-83
2022/03/15 10:25:53;;;;;;;7.57;4.75;;;8.10;99.90;;;;;;6062071;23;20054;-83
2022/03/15 10:28:44;;;;;;;8.57;4.95;;;8.10;99.90;;;;;;6060949;23;20299;-82
2022/03/15 10:31:53;;;;;;;12.88;4.70;;;8.10;99.90;;;;;;6062238;23;20022;-83
2022/03/15 10:34:41;;;;;;;10.50;5.07;;;8.10;99.90;;;;;;6064862;23;20193;-84
2022/03/15 10:46:01;;;;;;;9.95;5.47;;;8.30;99.90;;;;;;6068080;23;20054;-82
2022/03/15 10:49:34;;;;;;;10.15;5.30;;;8.50;99.90;;;;;;6058266;23;20130;-83
2022/03/15 10:52:51;;;;;;;9.07;5.00;;;8.50;99.90;;;;;;6068434;23;20395;-84
2022/03/15 10:55:41;;;;;;;13.15;6.40;;;8.50;99.90;;;;;;6060863;23;20331;-81
2022/03/15 10:58:59;;;;;;;12.48;6.03;;;8.50;99.90;;;;;;6064347;23;20236;-81
2022/03/15 11:01:56;;;;;;;10.60;6.13;;;8.50;99.90;;;;;;6063015;23;20034;-81
2022/03/15 11:04:50;;;;;;;10.43;6.20;;;8.40;99.90;;;;;;6059019;23;20177;-83
2022/03/15 11:07:39;;;;;;;14.85;5.80;;;8.30;99.90;;;;;;6139028;23;20354;-82
2022/03/15 11:10:27;;;;;;;10.40;5.40;;;8.20;99.90;;;;;;6144974;23;20019;-81
2022/03/15 11:13:16;;;;;;;11.32;5.65;;;8.20;99.90;;;;;;6142009;23;20162;-81
2022/03/15 11:16:04;;;;;;;10.05;5.95;;;8.10;99.90;;;;;;6063086;23;20042;-82
2022/03/15 11:19:17;;;;;;;14.98;5.75;;;8.00;99.90;;;;;;6139039;23;20027;-81
2022/03/15 11:22:05;;;;;;;;;;;8.00;99.90;;;;;;6144853;23;20030;-80
2022/03/15 11:24:58;;;;;;;15.18;6.60;;;7.90;99.90;;;;;;6144966;23;19964;-83
2022/03/15 11:27:49;;;;;;;13.75;7.03;;;7.80;99.90;;;;;;6146411;23;20023;-83
2022/03/15 11:31:09;;;;;;;17.45;7.13;;;7.80;99.90;;;;;;6145431;23;20054;-80
2022/03/15 11:37:49;;;;;;;15.00;8.07;;;7.80;99.90;;;;;;6079663;23;20038;-82
2022/03/15 11:40:38;;;;;;;14.48;7.65;;;7.80;99.90;;;;;;6148814;23;20033;-83
2022/03/15 11:43:50;;;;;;;15.32;7.72;;;7.80;99.90;;;;;;6067243;23;20106;-82
2022/03/15 11:46:52;;;;;;;12.45;7.80;;;7.80;99.90;;;;;;6070711;23;20422;-80
2022/03/15 11:50:04;;;;;;;15.57;8.10;;;7.90;99.90;;;;;;6067305;23;20027;-82
2022/03/15 11:53:35;;;;;;;12.82;7.90;;;7.90;99.90;;;;;;6069696;23;20402;-80
2022/03/15 11:57:10;;;;;;;13.98;8.15;;;8.00;99.90;;;;;;6064807;23;20426;-82
2022/03/15 11:59:58;;;;;;;15.77;9.35;;;7.90;99.90;;;;;;6150561;23;20027;-81
2022/03/15 12:02:50;;;;;;;18.90;8.90;;;8.00;99.90;;;;;;6063595;23;20038;-81
2022/03/15 12:05:49;;;;;;;15.53;9.50;;;8.00;99.90;;;;;;6063162;23;20061;-81
2022/03/15 12:08:37;;;;;;;11.68;8.05;;;7.90;99.90;;;;;;6143185;23;20054;-81
2022/03/15 12:11:44;;;;;;;15.02;9.27;;;7.90;99.90;;;;;;6121625;23;20035;-80
2022/03/15 12:14:38;;;;;;;21.05;9.70;;;8.00;99.90;;;;;;6143235;23;20031;-79
2022/03/15 12:17:39;;;;;;;18.88;10.00;;;8.00;99.90;;;;;;6061780;23;20042;-82
2022/03/15 12:20:26;;;;;;;16.77;9.10;;;7.90;99.90;;;;;;6061493;23;20041;-80
2022/03/15 12:23:26;;;;;;;16.92;7.90;;;8.00;99.90;;;;;;6061927;23;20107;-79
2022/03/15 12:26:22;;;;;;;10.50;6.68;;;8.00;99.90;;;;;;6060139;23;20121;-79
2022/03/15 12:29:14;;;;;;;13.40;6.18;;;8.00;99.90;;;;;;6147549;23;20035;-87
2022/03/15 12:32:24;;;;;;;;;;;8.00;99.90;;;;;;6067496;23;20033;-87
2022/03/15 12:36:08;;;;;;;13.60;5.80;;;7.90;99.90;;;;;;6148622;23;19918;-85
2022/03/15 12:43:24;;;;;;;8.07;4.53;;;8.00;99.90;;;;;;6126633;23;20018;-85
2022/03/15 12:46:12;;;;;;;7.30;4.68;;;7.90;99.90;;;;;;6105556;23;20037;-85
2022/03/15 12:49:13;;;;;;;7.82;5.25;;;8.00;99.90;;;;;;6136820;23;20069;-84
2022/03/15 12:52:12;;;;;;;7.60;5.13;;;8.10;99.90;;;;;;6126593;23;20035;-86
2022/03/15 12:55:02;;;;;;;8.23;5.45;;;8.10;99.90;;;;;;6146775;23;20034;-86
2022/03/15 12:58:03;;;;;;;8.50;5.50;;;8.20;99.90;;;;;;6063558;23;20031;-87
2022/03/15 13:00:52;;;;;;;8.80;4.50;;;8.30;99.90;;;;;;6148897;23;20035;-85
2022/03/15 13:03:44;;;;;;;9.13;4.57;;;8.30;99.90;;;;;;6067088;23;20023;-87
2022/03/15 13:06:32;;;;;;;5.22;3.80;;;8.40;99.90;;;;;;6150116;23;20022;-86
2022/03/15 13:09:30;;;;;;;8.52;4.90;;;8.40;99.90;;;;;;6063037;23;20093;-89
2022/03/15 13:12:21;;;;;;;10.52;5.38;;;8.50;99.90;;;;;;6066103;23;20030;-88
2022/03/15 13:15:19;;;;;;;12.60;5.85;;;8.60;99.90;;;;;;6066034;23;20354;-86
2022/03/15 13:18:08;;;;;;;7.78;5.97;;;8.50;99.90;;;;;;6067583;23;20034;-88
2022/03/15 13:21:02;;;;;;;14.38;5.40;;;8.60;99.90;;;;;;6067977;23;20054;-86
2022/03/15 13:23:49;;;;;;;9.18;5.72;;;8.60;99.90;;;;;;6150875;23;20023;-88
2022/03/15 13:26:39;;;;;;;7.60;5.28;;;8.70;99.90;;;;;;6063138;23;20077;-85
2022/03/15 13:29:30;;;;;;;9.20;6.10;;;8.70;99.90;;;;;;6064358;23;20075;-87
2022/03/15 13:32:22;;;;;;;11.25;5.50;;;8.70;99.90;;;;;;6067139;23;20062;-88
2022/03/15 13:35:10;;;;;;;12.25;5.60;;;8.70;99.90;;;;;;6062405;23;20053;-87
2022/03/15 13:37:59;;;;;;;7.35;5.25;;;8.70;99.90;;;;;;6060705;23;20023;-88
2022/03/15 13:40:49;;;;;;;8.35;5.60;;;8.60;99.90;;;;;;6145393;23;20093;-86
2022/03/15 13:43:42;;;;;;;15.05;6.43;;;8.70;99.90;;;;;;6062367;23;20034;-85
2022/03/15 13:46:31;;;;;;;11.02;5.75;;;8.70;99.90;;;;;;6060014;23;20196;-86
2022/03/15 13:49:24;;;;;;;10.73;5.38;;;8.70;99.90;;;;;;6060431;23;20402;-87
2022/03/15 13:52:17;;;;;;;11.65;8.95;;;8.70;99.90;;;;;;6145819;23;20026;-87
2022/03/15 13:55:10;;;;;;;9.43;6.00;;;8.70;99.90;;;;;;6143999;23;20039;-87
2022/03/15 13:57:58;;;;;;;11.57;5.28;;;8.70;99.90;;;;;;6148012;23;20042;-88
2022/03/15 14:01:09;;;;;;;8.82;6.65;;;8.60;99.90;;;;;;6146862;23;20278;-88
2022/03/15 14:04:09;;;;;;;8.32;6.68;;;8.70;99.90;;;;;;6146974;23;20492;-85
2022/03/15 14:07:01;;;;;;;10.82;6.65;;;8.70;99.90;;;;;;6143926;23;20067;-87
2022/03/15 14:09:58;;;;;;;7.32;5.65;;;8.90;99.90;;;;;;6145858;23;20030;-85
2022/03/15 14:12:49;;;;;;;12.65;5.68;;;9.00;99.90;;;;;;6146908;23;20383;-85
2022/03/15 14:15:37;;;;;;;8.20;4.95;;;9.30;99.90;;;;;;6145602;23;20029;-87
2022/03/15 14:18:25;;;;;;;11.00;6.10;;;9.60;99.90;;;;;;6059935;23;20030;-86
2022/03/15 14:21:21;;;;;;;7.10;4.47;;;9.90;99.90;;;;;;6061893;23;20102;-84
2022/03/15 14:24:25;;;;;;;4.90;3.92;;;10.20;99.90;;;;;;6062814;23;20118;-87
2022/03/15 14:27:16;;;;;;;11.05;4.68;;;10.40;99.90;;;;;;6144421;23;20023;-87
2022/03/15 14:30:06;;;;;;;;;;;10.60;99.90;;;;;;6140708;23;20164;-87
2022/03/15 14:33:08;;;;;;;6.95;3.75;;;10.70;99.90;;;;;;6062893;23;19917;-87
2022/03/15 14:36:02;;;;;;;6.05;3.70;;;10.80;99.90;;;;;;6139326;23;20051;-87
2022/03/15 14:38:50;;;;;;;11.93;3.53;;;10.80;99.90;;;;;;6061884;23;20130;-87
2022/03/15 14:41:40;;;;;;;6.93;4.60;;;10.60;99.90;;;;;;6063027;23;20027;-87
2022/03/15 14:44:30;;;;;;;8.55;3.42;;;10.70;99.90;;;;;;6061889;23;20019;-89
2022/03/15 14:47:17;;;;;;;11.40;4.30;;;10.70;99.90;;;;;;6066718;23;20055;-88
2022/03/15 14:50:05;;;;;;;6.95;4.28;;;10.90;99.90;;;;;;6062733;23;20102;-87
2022/03/15 14:52:53;;;;;;;10.82;3.80;;;10.90;99.90;;;;;;6062186;23;20122;-85
2022/03/15 14:55:49;;;;;;;9.52;4.50;;;10.80;99.90;;;;;;6063348;23;20462;-86
2022/03/15 14:58:39;;;;;;;6.40;4.03;;;10.70;99.90;;;;;;6144869;23;20497;-84
2022/03/15 15:01:29;;;;;;;13.38;4.43;;;10.40;99.90;;;;;;6149092;23;20027;-88
2022/03/15 15:04:18;;;;;;;10.75;3.78;;;10.30;99.90;;;;;;6062779;23;20061;-87
2022/03/15 15:07:12;;;;;;;7.25;4.00;;;10.30;99.90;;;;;;6062028;23;20027;-86
2022/03/15 15:10:05;;;;;;;8.80;3.83;;;10.30;99.90;;;;;;6140220;23;20027;-86
2022/03/15 15:12:53;;;;;;;16.27;4.13;;;10.30;99.90;;;;;;6146261;23;20429;-85
2022/03/15 15:15:46;;;;;;;7.95;4.03;;;10.30;99.90;;;;;;6124105;23;20432;-83
2022/03/15 15:18:38;;;;;;;8.73;4.60;;;10.30;99.90;;;;;;6145626;23;20035;-86
2022/03/15 15:21:28;;;;;;;8.30;4.45;;;10.30;99.90;;;;;;6063474;23;20035;-86
2022/03/15 15:24:17;;;;;;;7.25;4.70;;;10.20;99.90;;;;;;6061758;23;20034;-87
2022/03/15 15:27:11;;;;;;;8.73;4.88;;;10.10;99.90;;;;;;6061289;23;20030;-85
2022/03/15 15:30:02;;;;;;;10.60;5.50;;;10.00;99.90;;;;;;6146025;23;20134;-86
2022/03/15 15:32:52;;;;;;;9.82;5.03;;;10.00;99.90;;;;;;6069204;23;20310;-87
2022/03/15 15:35:42;;;;;;;15.98;7.00;;;9.90;99.90;;;;;;6148809;23;20027;-87
2022/03/15 15:38:31;;;;;;;14.57;6.53;;;10.00;99.90;;;;;;6065150;23;20035;-84
2022/03/15 15:41:19;;;;;;;12.07;6.95;;;10.00;99.90;;;;;;6141714;23;20329;-85
2022/03/15 15:44:09;;;;;;;12.75;6.13;;;10.00;99.90;;;;;;6148280;23;20019;-85
2022/03/15 15:47:01;;;;;;;10.00;5.40;;;10.00;99.90;;;;;;6062381;23;20114;-85
2022/03/15 15:49:53;;;;;;;17.17;5.85;;;10.00;99.90;;;;;;6061260;23;20027;-89
2022/03/15 15:52:49;;;;;;;13.27;5.60;;;10.00;99.90;;;;;;6141193;23;20065;-89
2022/03/15 15:55:42;;;;;;;10.63;5.80;;;10.10;99.90;;;;;;6145748;23;20085;-87
2022/03/15 15:58:41;;;;;;;15.32;5.75;;;10.10;99.90;;;;;;6131763;23;20426;-86
2022/03/15 16:01:41;;;;;;;16.40;5.90;;;10.00;99.90;;;;;;6061859;23;20037;-88
2022/03/15 16:04:29;;;;;;;12.48;5.95;;;10.00;99.90;;;;;;6151554;23;20030;-86
2022/03/15 16:07:39;;;;;;;10.20;5.78;;;10.10;99.90;;;;;;6161275;23;20031;-83
2022/03/15 16:10:28;;;;;;;14.30;5.07;;;10.10;99.90;;;;;;6071015;23;20031;-87
2022/03/15 16:13:16;;;;;;;12.90;5.50;;;10.10;99.90;;;;;;6064639;23;20106;-87
2022/03/15 16:16:05;;;;;;;14.10;5.50;;;10.10;99.90;;;;;;6144016;23;20026;-88
2022/03/15 16:18:54;;;;;;;9.05;4.82;;;10.10;99.90;;;;;;6063252;23;20027;-89